createdAt,value
2022-09-23T00:01:14.157Z,10.89
2022-09-23T00:03:42.694Z,10.89
2022-09-23T00:06:14.571Z,10.85
2022-09-23T00:08:41.899Z,10.89
2022-09-23T00:11:29.077Z,10.87
2022-09-23T00:13:58.341Z,10.92
2022-09-23T00:16:28.556Z,11.04
2022-09-23T00:18:55.481Z,10.91
2022-09-23T00:21:22.700Z,10.90
2022-09-23T00:23:49.619Z,10.94
2022-09-23T00:26:19.016Z,10.92
2022-09-23T00:28:46.377Z,10.91
2022-09-23T00:31:18.818Z,10.88
2022-09-23T00:33:45.637Z,10.83
2022-09-23T00:36:17.326Z,10.81
2022-09-23T00:38:45.237Z,10.83
2022-09-23T00:41:13.197Z,10.86
2022-09-23T00:43:41.697Z,10.86
2022-09-23T00:46:10.597Z,10.90
2022-09-23T00:48:39.544Z,10.91
2022-09-23T00:51:09.127Z,10.84
2022-09-23T00:53:36.303Z,10.77
2022-09-23T00:56:07.261Z,10.89
2022-09-23T00:58:35.313Z,10.85
2022-09-23T01:01:02.682Z,10.83
2022-09-23T01:03:29.651Z,10.88
2022-09-23T01:05:57.118Z,10.81
2022-09-23T01:08:24.746Z,10.80
2022-09-23T01:11:10.248Z,10.82
2022-09-23T01:13:57.136Z,10.84
2022-09-23T01:16:46.039Z,10.81
2022-09-23T01:19:29.147Z,10.73
2022-09-23T01:22:01.900Z,10.62
2022-09-23T01:24:40.644Z,10.58
2022-09-23T01:27:34.806Z,10.58
2022-09-23T01:30:29.524Z,10.56
2022-09-23T01:33:14.341Z,10.50
2022-09-23T01:36:19.004Z,10.47
2022-09-23T01:38:48.885Z,10.52
2022-09-23T01:41:25.321Z,10.50
2022-09-23T01:44:07.130Z,10.47
2022-09-23T01:46:57.190Z,10.53
2022-09-23T01:49:39.257Z,10.45
2022-09-23T01:52:29.979Z,10.56
2022-09-23T01:55:31.246Z,10.61
2022-09-23T01:58:12.619Z,10.60
2022-09-23T02:00:44.268Z,10.57
2022-09-23T02:03:32.411Z,10.61
2022-09-23T02:06:03.200Z,10.60
2022-09-23T02:08:44.987Z,10.54
2022-09-23T02:11:15.605Z,10.59
2022-09-23T02:14:17.846Z,10.55
2022-09-23T02:16:49.896Z,10.48
2022-09-23T02:19:42.081Z,10.61
2022-09-23T02:22:15.474Z,10.59
2022-09-23T02:24:44.957Z,10.57
2022-09-23T02:27:31.807Z,10.61
2022-09-23T02:30:27.468Z,10.62
2022-09-23T02:32:57.142Z,10.55
2022-09-23T02:35:36.476Z,10.57
2022-09-23T02:38:39.028Z,10.63
2022-09-23T02:41:30.525Z,10.55
2022-09-23T02:44:09.486Z,10.47
2022-09-23T02:46:37.355Z,10.47
2022-09-23T02:49:28.393Z,10.43
2022-09-23T02:51:56.550Z,10.40
2022-09-23T02:54:25.957Z,10.38
2022-09-23T02:56:53.456Z,10.35
2022-09-23T02:59:24.696Z,10.29
2022-09-23T03:02:33.689Z,10.31
2022-09-23T03:05:19.106Z,10.16
2022-09-23T03:08:04.337Z,10.28
2022-09-23T03:10:42.056Z,10.15
2022-09-23T03:13:26.061Z,10.08
2022-09-23T03:16:20.359Z,9.94
2022-09-23T03:19:41.660Z,9.94
2022-09-23T03:22:30.487Z,9.83
2022-09-23T03:25:04.743Z,9.90
2022-09-23T03:27:48.282Z,10.00
2022-09-23T03:30:18.317Z,10.01
2022-09-23T03:33:19.854Z,10.07
2022-09-23T03:36:30.477Z,10.13
2022-09-23T03:39:39.209Z,10.14
2022-09-23T03:46:08.229Z,9.92
2022-09-23T03:48:35.648Z,9.92
2022-09-23T03:51:17.605Z,9.93
2022-09-23T03:53:46.995Z,9.95
2022-09-23T03:56:14.441Z,10.01
2022-09-23T03:58:41.555Z,10.04
2022-09-23T04:01:08.597Z,9.95
2022-09-23T04:03:35.509Z,9.99
2022-09-23T04:06:05.745Z,10.03
2022-09-23T04:08:32.907Z,9.96
2022-09-23T04:11:01.757Z,9.98
2022-09-23T04:13:29.770Z,10.03
2022-09-23T04:15:56.639Z,9.82
2022-09-23T04:18:23.566Z,9.79
2022-09-23T04:20:50.438Z,9.84
2022-09-23T04:23:17.463Z,9.87
2022-09-23T04:25:48.556Z,9.82
2022-09-23T04:28:15.591Z,9.83
2022-09-23T04:30:43.825Z,9.80
2022-09-23T04:33:11.253Z,9.81
2022-09-23T04:35:40.302Z,9.77
2022-09-23T04:38:07.276Z,9.88
2022-09-23T04:40:34.275Z,9.78
2022-09-23T04:43:13.335Z,9.86
2022-09-23T04:45:40.400Z,9.78
2022-09-23T04:48:07.399Z,9.76
2022-09-23T04:50:34.151Z,9.73
2022-09-23T04:53:02.658Z,9.77
2022-09-23T04:55:29.510Z,9.78
2022-09-23T04:57:56.533Z,9.93
2022-09-23T05:00:24.299Z,9.86
2022-09-23T05:02:50.983Z,9.81
2022-09-23T05:05:22.416Z,9.80
2022-09-23T05:07:49.495Z,9.83
2022-09-23T05:10:16.518Z,9.83
2022-09-23T05:12:43.262Z,9.99
2022-09-23T05:15:10.150Z,10.10
2022-09-23T05:17:37.400Z,10.12
2022-09-23T05:20:04.870Z,10.14
2022-09-23T05:22:31.678Z,10.02
2022-09-23T05:25:00.339Z,10.34
2022-09-23T05:27:29.820Z,10.14
2022-09-23T05:29:56.558Z,10.36
2022-09-23T05:32:24.236Z,10.41
2022-09-23T05:34:51.398Z,10.38
2022-09-23T05:37:18.511Z,10.30
2022-09-23T05:39:45.209Z,10.50
2022-09-23T05:42:12.640Z,10.27
2022-09-23T05:44:39.623Z,10.17
2022-09-23T05:47:06.620Z,10.03
2022-09-23T05:49:57.951Z,10.00
2022-09-23T05:52:20.265Z,10.06
2022-09-23T05:54:47.002Z,10.21
2022-09-23T05:57:13.824Z,10.29
2022-09-23T05:59:40.567Z,10.38
2022-09-23T06:02:11.587Z,10.49
2022-09-23T06:04:40.329Z,10.74
2022-09-23T06:07:13.637Z,10.90
2022-09-23T06:09:40.420Z,10.88
2022-09-23T06:12:07.253Z,10.99
2022-09-23T06:14:34.039Z,10.98
2022-09-23T06:17:00.727Z,11.15
2022-09-23T06:19:27.342Z,11.29
2022-09-23T06:21:54.258Z,11.43
2022-09-23T06:24:25.892Z,11.39
2022-09-23T06:26:55.836Z,11.49
2022-09-23T06:29:22.536Z,11.67
2022-09-23T06:31:49.792Z,11.86
2022-09-23T06:34:16.937Z,11.93
2022-09-23T06:36:46.209Z,11.94
2022-09-23T06:39:14.886Z,12.00
2022-09-23T06:41:42.255Z,12.15
2022-09-23T06:44:13.220Z,12.33
2022-09-23T06:46:40.150Z,12.45
2022-09-23T06:49:06.972Z,12.46
2022-09-23T06:51:34.573Z,12.59
2022-09-23T06:54:01.348Z,12.67
2022-09-23T06:56:28.137Z,12.74
2022-09-23T06:58:54.932Z,12.67
2022-09-23T07:01:22.922Z,12.70
2022-09-23T07:03:49.786Z,12.75
2022-09-23T07:06:17.455Z,12.94
2022-09-23T07:08:46.874Z,12.85
2022-09-23T07:11:14.145Z,12.98
2022-09-23T07:13:42.017Z,12.89
2022-09-23T07:16:09.881Z,12.68
2022-09-23T07:18:37.643Z,12.86
2022-09-23T07:21:07.068Z,12.98
2022-09-23T07:23:34.155Z,13.11
2022-09-23T07:26:05.301Z,13.18
2022-09-23T07:28:33.654Z,13.26
2022-09-23T07:31:09.971Z,13.33
2022-09-23T07:33:47.810Z,13.38
2022-09-23T07:36:19.385Z,13.42
2022-09-23T07:38:49.136Z,13.62
2022-09-23T07:41:18.473Z,13.68
2022-09-23T07:48:34.095Z,13.87
2022-09-23T07:51:17.251Z,13.73
2022-09-23T07:57:31.175Z,13.88
2022-09-23T08:03:53.020Z,13.83
2022-09-23T08:06:23.953Z,13.76
2022-09-23T08:08:53.523Z,13.71
2022-09-23T08:11:20.740Z,13.71
2022-09-23T08:13:47.971Z,13.75
2022-09-23T08:16:15.012Z,14.01
2022-09-23T08:18:45.780Z,13.99
2022-09-23T08:21:20.236Z,14.08
2022-09-23T08:23:47.514Z,14.09
2022-09-23T08:26:20.805Z,14.19
2022-09-23T08:28:49.633Z,14.23
2022-09-23T08:31:16.633Z,14.20
2022-09-23T08:33:43.693Z,14.31
2022-09-23T08:36:12.048Z,14.31
2022-09-23T08:38:41.043Z,14.34
2022-09-23T08:41:23.167Z,14.41
2022-09-23T08:43:54.037Z,14.32
2022-09-23T08:46:33.260Z,14.29
2022-09-23T08:49:43.781Z,14.28
2022-09-23T08:52:28.138Z,14.29
2022-09-23T08:54:57.763Z,14.31
2022-09-23T08:57:38.841Z,14.30
2022-09-23T09:00:15.393Z,14.41
2022-09-23T09:02:44.638Z,14.53
2022-09-23T09:05:13.416Z,14.69
2022-09-23T09:08:04.434Z,14.92
2022-09-23T09:11:31.625Z,14.89
2022-09-23T09:17:57.713Z,15.05
2022-09-23T09:20:48.848Z,15.14
2022-09-23T09:24:03.076Z,15.26
2022-09-23T09:26:44.859Z,15.40
2022-09-23T09:29:36.384Z,15.46
2022-09-23T09:32:49.049Z,15.51
2022-09-23T09:35:33.330Z,15.75
2022-09-23T09:38:01.820Z,16.05
2022-09-23T09:40:28.665Z,16.18
2022-09-23T09:42:55.384Z,16.27
2022-09-23T09:45:37.849Z,16.26
2022-09-23T09:48:17.579Z,16.39
2022-09-23T09:50:49.867Z,16.39
2022-09-23T09:53:24.013Z,16.64
2022-09-23T09:56:03.699Z,16.66
2022-09-23T09:58:49.418Z,16.57
2022-09-23T10:01:28.028Z,16.62
2022-09-23T10:03:59.518Z,16.72
2022-09-23T10:06:34.364Z,16.60
2022-09-23T10:09:22.070Z,16.53
2022-09-23T10:12:18.698Z,16.74
2022-09-23T10:14:47.314Z,16.50
2022-09-23T10:17:28.277Z,16.63
2022-09-23T10:20:00.410Z,16.66
2022-09-23T10:22:39.738Z,16.66
2022-09-23T10:25:36.274Z,16.55
2022-09-23T10:28:44.727Z,16.52
2022-09-23T10:31:26.702Z,16.74
2022-09-23T10:42:51.579Z,16.34
2022-09-23T22:23:39.190Z,14.67
2022-09-23T22:27:01.709Z,14.58
2022-09-23T22:29:48.276Z,14.83
2022-09-23T22:32:38.854Z,14.99
2022-09-23T22:35:17.788Z,15.03
2022-09-23T22:37:45.970Z,15.09
2022-09-23T22:40:14.708Z,15.11
2022-09-23T22:42:42.428Z,15.12
2022-09-23T22:45:10.604Z,15.07
2022-09-23T22:47:39.036Z,15.14
2022-09-23T22:50:07.997Z,15.04
2022-09-23T22:52:35.080Z,15.14
2022-09-23T22:55:01.851Z,15.01
2022-09-23T22:57:28.502Z,14.87
2022-09-23T22:59:55.080Z,14.84
2022-09-23T23:02:23.801Z,15.01
2022-09-23T23:04:51.136Z,14.96
2022-09-23T23:07:21.158Z,14.82
2022-09-23T23:09:50.622Z,14.78
2022-09-23T23:12:26.557Z,14.71
2022-09-23T23:18:44.051Z,14.73
2022-09-23T23:21:31.320Z,14.67
2022-09-23T23:24:14.417Z,14.59
2022-09-23T23:26:45.869Z,14.69
2022-09-23T23:29:25.436Z,14.72
2022-09-23T23:32:11.471Z,14.76
2022-09-23T23:35:08.973Z,14.68
2022-09-23T23:38:05.801Z,14.77
2022-09-23T23:40:37.934Z,14.78
2022-09-23T23:43:16.496Z,14.85
2022-09-23T23:45:49.252Z,14.89
2022-09-23T23:48:28.307Z,14.82
2022-09-23T23:51:11.822Z,14.82
2022-09-23T23:53:42.740Z,14.64
2022-09-23T23:56:20.686Z,14.71
2022-09-23T23:58:47.975Z,14.82
